VECC/CCU METAR and TAF weather

Enter ICAO airport designator
Station Type Date Time Source
VECC METAR 2019/08/22 05:30 UTC NOAA

VECC 220530Z 15006KT 3200 HZ FEW020 SCT100 34/27 Q1002 NOSIG


Station Type Date Time Source
VECC Decoded METAR 2019/08/22 05:30 UTC NOAA

Station name not available
Aug 22, 2019 - 01:30 AM EDT / 2019.08.22 0530 UTC
Wind: from the SSE (150 degrees) at 7 MPH (6 KT):0
Visibility: 1 mile(s):0
Sky conditions: partly cloudy
Weather: haze
Temperature: 93 F (34 C)
Heat index: 113.0 F (45.0 C):1
Dew Point: 80 F (27 C)
Relative Humidity: 67%
Pressure (altimeter): 29.59 in. Hg (1002 hPa)
ob: VECC 220530Z 15006KT 3200 HZ FEW020 SCT100 34/27 Q1002 NOSIG
cycle: 5

Station Type Date Time Source
VECC TAF 2019/08/21 18:39 UTC NOAA

TAF VECC 211700Z 2118/2224 16007KT 3500 HZ SCT018 SCT100
BECMG 2121/2123 2800 HZ
BECMG 2202/2204 4000 HZ
TEMPO 2206/2210 2000 TSRA SCT015 FEW025CB OVC090
BECMG 2221/2223 2800 HZ

Example: see airport list